Terminal Aerodrome Forecast
Issued by NWS

Current Version | Previous Version | Text Only | Print | Product List | Glossary On
Versions: 1 2 3 4 5 6 7 8 9 10 11 12 13 14 15 16 17 18 19 20 21 22 23 24 25 26 27 28 29 30 31 32 33 34 35 36 37
000
FTUS45 KPSR 311700
TAFPHX
TAF
KPHX 311722Z 3118/0118 VRB03KT P6SM -SHRA BKN035 OVC070
      TEMPO 3118/3122 6SM -SHRA OVC035
     FM312200 29005KT P6SM VCSH SCT035 BKN050 OVC070
     FM010300 VRB03KT P6SM BKN060
     FM010900 11004KT 6SM BR SCT060
     FM011600 VRB03KT P6SM FEW060=

USA.gov is the U.S. government's official web portal to all federal, state and local government web resources and services.